Time;durP1;ratioP1;P1;durP2;ratioP2;P2;SDS_P1;SDS_P2;PMS_P1;PMS_P2;Temp;Humidity;BMP_temperature;BMP_pressure;BME280_temperature;BME280_humidity;BME280_pressure;Samples;Min_cycle;Max_cycle;Signal;HPM_P1;HPM_P2
2022/07/31 00:00:36;;;;;;;5.18;4.68;;;;;;;;;;5087144;28;20063;-73
2022/07/31 00:03:02;;;;;;;6.78;4.78;;;;;;;;;;5069089;28;20052;-75
2022/07/31 00:05:29;;;;;;;6.70;4.68;;;;;;;;;;5046024;28;20123;-75
2022/07/31 00:07:56;;;;;;;8.07;5.20;;;;;;;;;;5080362;28;20060;-74
2022/07/31 00:10:22;;;;;;;7.80;4.90;;;;;;;;;;5087238;28;20048;-75
2022/07/31 00:12:48;;;;;;;6.38;4.78;;;;;;;;;;5088137;28;20076;-75
2022/07/31 00:15:14;;;;;;;7.40;4.68;;;;;;;;;;5087479;28;20045;-75
2022/07/31 00:17:41;;;;;;;8.43;4.95;;;;;;;;;;5086929;28;20140;-75
2022/07/31 00:20:07;;;;;;;6.22;4.68;;;;;;;;;;5086277;28;20037;-74
2022/07/31 00:22:36;;;;;;;5.72;4.47;;;;;;;;;;5074208;28;20151;-75
2022/07/31 00:25:02;;;;;;;8.73;4.93;;;;;;;;;;5087674;28;20059;-75
2022/07/31 00:27:28;;;;;;;6.25;5.20;;;;;;;;;;5085974;28;20041;-75
2022/07/31 00:29:54;;;;;;;5.80;4.15;;;;;;;;;;5086513;28;20052;-74
2022/07/31 00:32:20;;;;;;;7.95;4.80;;;;;;;;;;5086273;28;20051;-75
2022/07/31 00:34:46;;;;;;;6.05;4.80;;;;;;;;;;5084259;28;20495;-74
2022/07/31 00:37:12;;;;;;;9.55;5.25;;;;;;;;;;5086314;28;20055;-74
2022/07/31 00:39:38;;;;;;;7.72;4.93;;;;;;;;;;5089160;28;20040;-75
2022/07/31 00:42:04;;;;;;;12.80;4.93;;;;;;;;;;5086696;28;20047;-74
2022/07/31 00:44:30;;;;;;;8.52;5.03;;;;;;;;;;5084416;28;20040;-75
2022/07/31 00:46:57;;;;;;;5.82;5.15;;;;;;;;;;5087219;28;20048;-75
2022/07/31 00:49:23;;;;;;;6.07;4.88;;;;;;;;;;5086686;28;20040;-74
2022/07/31 00:51:50;;;;;;;6.60;4.50;;;;;;;;;;5086420;28;20044;-75
2022/07/31 00:54:16;;;;;;;5.20;4.70;;;;;;;;;;5086794;28;20044;-73
2022/07/31 00:56:42;;;;;;;5.88;4.43;;;;;;;;;;5086862;28;20044;-74
2022/07/31 00:59:08;;;;;;;5.70;4.82;;;;;;;;;;5086479;28;20104;-73
2022/07/31 01:01:34;;;;;;;7.40;4.70;;;;;;;;;;5085686;28;20051;-73
2022/07/31 01:04:00;;;;;;;5.85;4.93;;;;;;;;;;5087000;28;20072;-74
2022/07/31 01:06:26;;;;;;;5.80;4.75;;;;;;;;;;5084841;28;20076;-75
2022/07/31 01:08:52;;;;;;;5.25;4.70;;;;;;;;;;5083070;28;20097;-74
2022/07/31 01:11:24;;;;;;;7.32;4.95;;;;;;;;;;5084569;28;20041;-74
2022/07/31 01:13:59;;;;;;;7.38;4.88;;;;;;;;;;5068617;28;20055;-74
2022/07/31 01:16:27;;;;;;;7.82;4.90;;;;;;;;;;5086492;28;20048;-74
2022/07/31 01:18:55;;;;;;;7.97;4.95;;;;;;;;;;5091946;28;20077;-74
2022/07/31 01:21:27;;;;;;;5.80;5.20;;;;;;;;;;5106599;28;20047;-74
2022/07/31 01:24:11;;;;;;;6.45;5.40;;;;;;;;;;5088097;28;20052;-75
2022/07/31 01:26:44;;;;;;;7.63;5.70;;;;;;;;;;5065798;28;20040;-74
2022/07/31 01:29:22;;;;;;;8.32;4.97;;;;;;;;;;5067423;28;20053;-74
2022/07/31 01:31:51;;;;;;;5.70;4.85;;;;;;;;;;5086785;28;20048;-74
2022/07/31 01:34:26;;;;;;;6.78;4.57;;;;;;;;;;5084066;28;20074;-74
2022/07/31 01:36:57;;;;;;;6.35;4.72;;;;;;;;;;5085984;28;20047;-74
2022/07/31 01:39:24;;;;;;;6.68;4.60;;;;;;;;;;5084425;28;20040;-74
2022/07/31 01:41:52;;;;;;;6.38;4.60;;;;;;;;;;5085601;28;20044;-76
2022/07/31 01:44:18;;;;;;;5.78;4.50;;;;;;;;;;5085643;28;20108;-75
2022/07/31 01:46:45;;;;;;;8.05;4.70;;;;;;;;;;5085528;28;20052;-74
2022/07/31 01:49:13;;;;;;;6.05;4.30;;;;;;;;;;5083453;28;20044;-74
2022/07/31 01:51:39;;;;;;;5.95;4.75;;;;;;;;;;5084679;28;20102;-74
2022/07/31 01:54:06;;;;;;;6.43;4.25;;;;;;;;;;5096715;28;20036;-74
2022/07/31 01:56:33;;;;;;;6.30;4.75;;;;;;;;;;5086545;28;20055;-74
2022/07/31 01:59:00;;;;;;;5.53;4.18;;;;;;;;;;5084533;28;20152;-74
2022/07/31 02:01:27;;;;;;;6.93;4.68;;;;;;;;;;5087307;28;20072;-74
2022/07/31 02:03:54;;;;;;;12.57;5.28;;;;;;;;;;5066819;28;20079;-74
2022/07/31 02:06:20;;;;;;;8.13;5.38;;;;;;;;;;5086527;28;20040;-74
2022/07/31 02:08:48;;;;;;;5.25;4.55;;;;;;;;;;5068233;28;20064;-74
2022/07/31 02:11:16;;;;;;;5.90;4.78;;;;;;;;;;5086336;28;20040;-74
2022/07/31 02:13:42;;;;;;;7.38;5.20;;;;;;;;;;5084280;28;20055;-73
2022/07/31 02:16:08;;;;;;;6.15;4.63;;;;;;;;;;5086256;28;20100;-74
2022/07/31 02:18:35;;;;;;;6.05;5.45;;;;;;;;;;5083023;28;20047;-75
2022/07/31 02:21:01;;;;;;;9.57;5.47;;;;;;;;;;5084603;28;20059;-74
2022/07/31 02:23:28;;;;;;;10.40;5.20;;;;;;;;;;5086029;28;20055;-74
2022/07/31 02:25:54;;;;;;;5.60;4.80;;;;;;;;;;5088880;28;20047;-74
2022/07/31 02:28:21;;;;;;;6.30;5.10;;;;;;;;;;5090071;28;20098;-74
2022/07/31 02:30:48;;;;;;;6.55;4.70;;;;;;;;;;5089759;28;20079;-74
2022/07/31 02:33:17;;;;;;;5.93;4.90;;;;;;;;;;5088182;28;20043;-75
2022/07/31 02:35:44;;;;;;;7.55;4.97;;;;;;;;;;5089603;28;20036;-74
2022/07/31 02:38:10;;;;;;;5.80;4.65;;;;;;;;;;5088644;28;20414;-74
2022/07/31 02:40:37;;;;;;;6.80;4.95;;;;;;;;;;5088682;28;20072;-74
2022/07/31 02:43:03;;;;;;;10.35;4.70;;;;;;;;;;5086761;28;20041;-74
2022/07/31 02:45:29;;;;;;;5.65;4.95;;;;;;;;;;5088540;28;20059;-74
2022/07/31 02:47:56;;;;;;;8.52;5.25;;;;;;;;;;5087943;28;20052;-74
2022/07/31 02:50:22;;;;;;;8.23;4.75;;;;;;;;;;5086534;28;20082;-74
2022/07/31 02:52:48;;;;;;;6.60;4.53;;;;;;;;;;5088836;28;20403;-73
2022/07/31 02:55:15;;;;;;;5.95;4.65;;;;;;;;;;5088178;28;20119;-74
2022/07/31 02:57:41;;;;;;;5.07;4.40;;;;;;;;;;5087429;28;20133;-74
2022/07/31 03:00:14;;;;;;;5.00;4.50;;;;;;;;;;5087371;28;20112;-74
2022/07/31 03:02:41;;;;;;;5.18;4.68;;;;;;;;;;5087226;28;20040;-74
2022/07/31 03:05:07;;;;;;;6.15;4.68;;;;;;;;;;5088066;28;20052;-74
2022/07/31 03:07:33;;;;;;;5.72;4.18;;;;;;;;;;5069422;28;20045;-75
2022/07/31 03:09:59;;;;;;;6.40;4.75;;;;;;;;;;5078766;28;20045;-74
2022/07/31 03:12:26;;;;;;;6.32;4.63;;;;;;;;;;5086601;28;20036;-76
2022/07/31 03:14:52;;;;;;;6.47;4.80;;;;;;;;;;5084041;28;20045;-74
2022/07/31 03:17:19;;;;;;;6.13;5.00;;;;;;;;;;5087663;28;20044;-74
2022/07/31 03:19:46;;;;;;;11.63;5.22;;;;;;;;;;5085860;28;20072;-76
2022/07/31 03:22:12;;;;;;;5.80;4.60;;;;;;;;;;5069728;28;20171;-74
2022/07/31 03:24:38;;;;;;;4.90;4.47;;;;;;;;;;5072586;28;20037;-74
2022/07/31 03:27:04;;;;;;;5.65;5.03;;;;;;;;;;5087044;28;20104;-74
2022/07/31 03:29:39;;;;;;;9.93;5.35;;;;;;;;;;5077912;28;20094;-75
2022/07/31 03:32:05;;;;;;;8.30;4.82;;;;;;;;;;5086982;28;20128;-74
2022/07/31 03:34:31;;;;;;;7.97;5.15;;;;;;;;;;5087204;28;20071;-74
2022/07/31 03:36:57;;;;;;;5.70;5.10;;;;;;;;;;5086296;28;20051;-75
2022/07/31 03:39:24;;;;;;;5.43;4.70;;;;;;;;;;5086136;28;20068;-73
2022/07/31 03:41:50;;;;;;;6.55;5.07;;;;;;;;;;5086782;28;20127;-74
2022/07/31 03:44:16;;;;;;;8.07;4.90;;;;;;;;;;5084121;28;20573;-75
2022/07/31 03:46:43;;;;;;;5.80;5.30;;;;;;;;;;5086696;28;20063;-74
2022/07/31 03:49:11;;;;;;;6.68;5.25;;;;;;;;;;5085197;28;20474;-74
2022/07/31 03:51:37;;;;;;;7.68;5.35;;;;;;;;;;5086640;28;20055;-74
2022/07/31 03:54:03;;;;;;;10.70;5.53;;;;;;;;;;5087056;28;20056;-75
2022/07/31 03:56:30;;;;;;;8.55;6.38;;;;;;;;;;5086897;28;20041;-74
2022/07/31 03:58:56;;;;;;;9.73;6.30;;;;;;;;;;5085618;28;20457;-73
2022/07/31 04:01:23;;;;;;;6.85;6.00;;;;;;;;;;5086815;28;20075;-74
2022/07/31 04:03:49;;;;;;;8.85;6.20;;;;;;;;;;5068797;28;20542;-74
2022/07/31 04:06:15;;;;;;;12.48;5.95;;;;;;;;;;5087443;28;20128;-74
2022/07/31 04:08:41;;;;;;;7.05;5.68;;;;;;;;;;5069899;28;20102;-74
2022/07/31 04:11:07;;;;;;;5.90;5.30;;;;;;;;;;5087449;28;20108;-73
2022/07/31 04:13:34;;;;;;;7.93;5.80;;;;;;;;;;5085960;28;20440;-74
2022/07/31 04:16:00;;;;;;;8.18;6.25;;;;;;;;;;5086627;28;20048;-75
2022/07/31 04:18:26;;;;;;;7.00;6.30;;;;;;;;;;5084742;28;20050;-74
2022/07/31 04:20:52;;;;;;;7.75;6.18;;;;;;;;;;5085774;28;20052;-74
2022/07/31 04:23:18;;;;;;;8.38;5.95;;;;;;;;;;5086889;28;20076;-74
2022/07/31 04:25:44;;;;;;;8.05;6.40;;;;;;;;;;5086505;28;20154;-73
2022/07/31 04:28:10;;;;;;;8.88;5.88;;;;;;;;;;5086641;28;20045;-74
2022/07/31 04:30:37;;;;;;;7.97;6.10;;;;;;;;;;5087325;28;20048;-74
2022/07/31 04:33:03;;;;;;;8.95;6.00;;;;;;;;;;5086821;28;20100;-75
2022/07/31 04:35:29;;;;;;;8.00;6.15;;;;;;;;;;5087501;28;20048;-73
2022/07/31 04:37:55;;;;;;;8.27;6.45;;;;;;;;;;5086426;28;20040;-73
2022/07/31 04:40:21;;;;;;;8.07;5.90;;;;;;;;;;5086970;28;20036;-73
2022/07/31 04:42:47;;;;;;;7.45;6.00;;;;;;;;;;5085241;28;20044;-73
2022/07/31 04:45:13;;;;;;;7.35;6.25;;;;;;;;;;5085626;28;20063;-74
2022/07/31 04:47:39;;;;;;;10.07;5.70;;;;;;;;;;5084708;28;20490;-73
2022/07/31 04:50:06;;;;;;;10.68;5.90;;;;;;;;;;5067616;28;20507;-73
2022/07/31 04:52:33;;;;;;;8.95;6.43;;;;;;;;;;5083781;28;20051;-73
2022/07/31 04:55:00;;;;;;;7.60;5.88;;;;;;;;;;5085395;28;20096;-73
2022/07/31 04:57:26;;;;;;;11.65;6.30;;;;;;;;;;5086569;28;20041;-73
2022/07/31 04:59:52;;;;;;;7.35;5.85;;;;;;;;;;5086210;28;20044;-75
2022/07/31 05:02:18;;;;;;;10.43;7.07;;;;;;;;;;5096366;28;20032;-74
2022/07/31 05:04:44;;;;;;;7.30;5.97;;;;;;;;;;5107502;28;20055;-73
2022/07/31 05:07:10;;;;;;;7.45;5.88;;;;;;;;;;5087397;28;20175;-73
2022/07/31 05:09:36;;;;;;;12.23;5.90;;;;;;;;;;5086882;28;20048;-73
2022/07/31 05:12:02;;;;;;;6.63;5.75;;;;;;;;;;5086384;28;20049;-73
2022/07/31 05:14:28;;;;;;;9.98;6.57;;;;;;;;;;5087076;28;20487;-73
2022/07/31 05:16:54;;;;;;;8.20;5.93;;;;;;;;;;5086207;28;20041;-73
2022/07/31 05:19:20;;;;;;;7.63;6.00;;;;;;;;;;5087345;28;20396;-73
2022/07/31 05:21:46;;;;;;;6.85;5.57;;;;;;;;;;5070599;28;20048;-74
2022/07/31 05:24:12;;;;;;;9.85;6.43;;;;;;;;;;5100608;28;20037;-74
2022/07/31 05:26:38;;;;;;;9.55;6.15;;;;;;;;;;5086873;28;20041;-73
2022/07/31 05:29:06;;;;;;;7.55;5.88;;;;;;;;;;5087976;28;20079;-74
2022/07/31 05:31:32;;;;;;;6.50;5.90;;;;;;;;;;5085207;28;20052;-73
2022/07/31 05:33:58;;;;;;;6.80;6.20;;;;;;;;;;5086616;28;20067;-73
2022/07/31 05:36:25;;;;;;;7.00;6.30;;;;;;;;;;5084112;28;20036;-73
2022/07/31 05:38:52;;;;;;;7.53;5.95;;;;;;;;;;5085840;28;20079;-73
2022/07/31 05:41:18;;;;;;;7.30;6.05;;;;;;;;;;5085934;28;20087;-73
2022/07/31 05:43:44;;;;;;;7.07;6.00;;;;;;;;;;5086780;28;20040;-73
2022/07/31 05:46:12;;;;;;;6.97;6.00;;;;;;;;;;5066588;28;20132;-73
2022/07/31 05:48:39;;;;;;;6.82;6.10;;;;;;;;;;5085964;28;20052;-73
2022/07/31 05:51:07;;;;;;;7.40;6.07;;;;;;;;;;5085743;28;20029;-73
2022/07/31 05:53:33;;;;;;;6.90;5.68;;;;;;;;;;5087407;28;20036;-73
2022/07/31 05:55:59;;;;;;;9.55;6.43;;;;;;;;;;5084688;28;20040;-75
2022/07/31 05:58:25;;;;;;;9.32;6.38;;;;;;;;;;5080917;28;20048;-75
2022/07/31 06:00:51;;;;;;;8.32;6.47;;;;;;;;;;5086409;28;20051;-74
2022/07/31 06:03:22;;;;;;;9.57;6.90;;;;;;;;;;5080632;28;20036;-75
2022/07/31 06:05:49;;;;;;;7.70;6.20;;;;;;;;;;5080889;28;20056;-74
2022/07/31 06:08:15;;;;;;;10.00;6.88;;;;;;;;;;5081077;28;20109;-74
2022/07/31 06:10:41;;;;;;;9.02;6.70;;;;;;;;;;5081404;28;20052;-74
2022/07/31 06:13:07;;;;;;;9.55;6.78;;;;;;;;;;5086412;28;20090;-73
2022/07/31 06:15:33;;;;;;;10.05;6.75;;;;;;;;;;5087208;28;20040;-74
2022/07/31 06:18:00;;;;;;;7.75;6.72;;;;;;;;;;5088467;28;20036;-74
2022/07/31 06:20:26;;;;;;;8.27;7.15;;;;;;;;;;5087110;28;20128;-74
2022/07/31 06:22:52;;;;;;;10.27;6.53;;;;;;;;;;5083414;28;20052;-74
2022/07/31 06:25:18;;;;;;;8.02;6.90;;;;;;;;;;5083488;28;20547;-74
2022/07/31 06:27:45;;;;;;;16.33;7.35;;;;;;;;;;5086564;28;20049;-75
2022/07/31 06:30:11;;;;;;;11.80;7.07;;;;;;;;;;5073808;28;20050;-75
2022/07/31 06:32:37;;;;;;;10.10;7.13;;;;;;;;;;5074848;28;20101;-75
2022/07/31 06:35:04;;;;;;;9.52;7.40;;;;;;;;;;5075859;28;20094;-74
2022/07/31 06:37:30;;;;;;;9.50;7.57;;;;;;;;;;5074752;28;20181;-74
2022/07/31 06:39:56;;;;;;;8.88;7.35;;;;;;;;;;5074710;28;20075;-75
2022/07/31 06:42:22;;;;;;;10.43;8.00;;;;;;;;;;5074648;28;20072;-75
2022/07/31 06:44:48;;;;;;;12.63;8.88;;;;;;;;;;5071899;28;20049;-76
2022/07/31 06:47:15;;;;;;;9.80;7.95;;;;;;;;;;5069813;28;20065;-76
2022/07/31 06:49:43;;;;;;;9.07;8.13;;;;;;;;;;5071936;28;20045;-75
2022/07/31 06:52:10;;;;;;;11.02;8.07;;;;;;;;;;5071537;28;20071;-76
2022/07/31 06:54:36;;;;;;;10.32;8.18;;;;;;;;;;5074804;28;20036;-75
2022/07/31 06:57:02;;;;;;;10.82;8.60;;;;;;;;;;5073471;28;20048;-74
2022/07/31 06:59:28;;;;;;;10.60;8.93;;;;;;;;;;5073266;28;20484;-74
2022/07/31 07:01:54;;;;;;;12.15;8.85;;;;;;;;;;5075567;28;20049;-74
2022/07/31 07:04:20;;;;;;;12.02;8.80;;;;;;;;;;5073750;28;20052;-74
2022/07/31 07:06:46;;;;;;;11.45;9.75;;;;;;;;;;5072455;28;20173;-74
2022/07/31 07:09:12;;;;;;;10.38;9.07;;;;;;;;;;5074601;28;20087;-74
2022/07/31 07:11:39;;;;;;;11.40;10.18;;;;;;;;;;5074593;28;20128;-74
2022/07/31 07:14:05;;;;;;;11.95;9.00;;;;;;;;;;5077940;28;20044;-74
2022/07/31 07:16:31;;;;;;;16.45;9.63;;;;;;;;;;5077600;28;20045;-74
2022/07/31 07:18:57;;;;;;;11.25;8.90;;;;;;;;;;5077674;28;20041;-74
2022/07/31 07:21:24;;;;;;;11.13;9.80;;;;;;;;;;5077927;28;20501;-74
2022/07/31 07:23:50;;;;;;;13.77;10.30;;;;;;;;;;5079449;28;20091;-74
2022/07/31 07:26:17;;;;;;;11.50;9.68;;;;;;;;;;5057125;28;20408;-74
2022/07/31 07:28:46;;;;;;;11.75;9.85;;;;;;;;;;5077713;28;20048;-74
2022/07/31 07:31:12;;;;;;;12.10;10.20;;;;;;;;;;5077315;28;20090;-73
2022/07/31 07:33:38;;;;;;;11.80;10.15;;;;;;;;;;5058740;28;20534;-74
2022/07/31 07:36:04;;;;;;;11.82;9.80;;;;;;;;;;5075554;28;20040;-74
2022/07/31 07:38:30;;;;;;;11.65;10.45;;;;;;;;;;5059608;28;20123;-74
2022/07/31 07:40:56;;;;;;;12.45;10.57;;;;;;;;;;5077568;28;20095;-74
2022/07/31 07:43:22;;;;;;;13.68;10.50;;;;;;;;;;5076912;28;20499;-74
2022/07/31 07:45:48;;;;;;;14.50;11.52;;;;;;;;;;5075098;28;20045;-73
2022/07/31 07:48:14;;;;;;;14.60;11.52;;;;;;;;;;5074724;28;20040;-73
2022/07/31 07:50:40;;;;;;;11.82;10.60;;;;;;;;;;5077553;28;20102;-73
2022/07/31 07:53:07;;;;;;;15.68;11.38;;;;;;;;;;5076564;28;20047;-74
2022/07/31 07:55:33;;;;;;;13.38;11.93;;;;;;;;;;5076919;28;20040;-73
2022/07/31 07:57:59;;;;;;;14.30;11.90;;;;;;;;;;5077547;28;20449;-74
2022/07/31 08:00:25;;;;;;;13.77;11.88;;;;;;;;;;5077752;28;20040;-74
2022/07/31 08:02:51;;;;;;;16.33;11.93;;;;;;;;;;5078088;28;20127;-74
2022/07/31 08:05:17;;;;;;;18.48;12.98;;;;;;;;;;5075552;28;20083;-73
2022/07/31 08:07:44;;;;;;;14.55;12.15;;;;;;;;;;5077481;28;20066;-74
2022/07/31 08:10:11;;;;;;;16.15;13.07;;;;;;;;;;5078170;28;20044;-73
2022/07/31 08:12:37;;;;;;;17.10;13.25;;;;;;;;;;5078474;28;20075;-74
2022/07/31 08:15:04;;;;;;;19.23;13.82;;;;;;;;;;5079122;28;20153;-74
2022/07/31 08:17:30;;;;;;;19.65;15.23;;;;;;;;;;5079666;28;20045;-74
2022/07/31 08:19:56;;;;;;;20.08;14.90;;;;;;;;;;5081520;28;20095;-74
2022/07/31 08:22:22;;;;;;;19.02;14.38;;;;;;;;;;5079579;28;20048;-73
2022/07/31 08:24:48;;;;;;;18.35;14.93;;;;;;;;;;5082747;28;20504;-74
2022/07/31 08:27:24;;;;;;;19.90;15.38;;;;;;;;;;5083198;28;20051;-75
2022/07/31 08:30:10;;;;;;;17.05;15.27;;;;;;;;;;5088964;28;20052;-75
2022/07/31 08:32:37;;;;;;;18.48;15.98;;;;;;;;;;5067787;28;20041;-76
2022/07/31 08:35:19;;;;;;;19.00;16.05;;;;;;;;;;5082238;28;20510;-75
2022/07/31 08:37:48;;;;;;;20.20;16.52;;;;;;;;;;5080725;28;20044;-75
2022/07/31 08:40:16;;;;;;;23.00;17.60;;;;;;;;;;5079823;28;20403;-73
2022/07/31 08:42:44;;;;;;;20.52;17.45;;;;;;;;;;5077277;28;20076;-78
2022/07/31 08:45:10;;;;;;;21.25;17.67;;;;;;;;;;5075655;28;20120;-74
2022/07/31 08:47:37;;;;;;;22.40;18.00;;;;;;;;;;5073191;28;20467;-77
2022/07/31 08:50:04;;;;;;;21.40;18.25;;;;;;;;;;5071102;28;20077;-76
2022/07/31 08:52:31;;;;;;;28.08;20.23;;;;;;;;;;5071014;28;20045;-76
2022/07/31 08:54:58;;;;;;;25.45;18.55;;;;;;;;;;5056783;28;20477;-76
2022/07/31 08:57:25;;;;;;;22.13;17.48;;;;;;;;;;5070482;28;20194;-75
2022/07/31 08:59:52;;;;;;;15.85;13.50;;;;;;;;;;5073512;28;20123;-74
2022/07/31 09:02:18;;;;;;;21.80;16.13;;;;;;;;;;5077870;28;20047;-75
2022/07/31 09:04:44;;;;;;;23.48;14.98;;;;;;;;;;5069542;28;20041;-75
2022/07/31 09:07:14;;;;;;;19.90;14.80;;;;;;;;;;5069995;28;20768;-74
2022/07/31 09:09:42;;;;;;;20.75;14.60;;;;;;;;;;5036534;28;20052;-75
2022/07/31 09:12:08;;;;;;;16.52;13.45;;;;;;;;;;5052366;28;20037;-75
2022/07/31 09:14:34;;;;;;;19.23;14.82;;;;;;;;;;5070901;28;20036;-76
2022/07/31 09:17:01;;;;;;;18.25;14.52;;;;;;;;;;5072684;28;20044;-76
2022/07/31 09:19:40;;;;;;;17.73;13.23;;;;;;;;;;5074787;28;20052;-76
2022/07/31 09:22:06;;;;;;;19.27;13.73;;;;;;;;;;5073829;28;20094;-76
2022/07/31 09:24:33;;;;;;;18.63;13.35;;;;;;;;;;5065337;28;20484;-76
2022/07/31 09:27:04;;;;;;;15.93;13.52;;;;;;;;;;5064342;28;20067;-76
2022/07/31 09:29:48;;;;;;;15.35;12.32;;;;;;;;;;5042517;28;20098;-75
2022/07/31 09:32:16;;;;;;;17.20;14.05;;;;;;;;;;5065793;28;20055;-81
2022/07/31 09:34:43;;;;;;;19.02;13.63;;;;;;;;;;5065728;28;20509;-76
2022/07/31 09:37:14;;;;;;;18.98;14.80;;;;;;;;;;5067470;28;20423;-76
2022/07/31 09:39:40;;;;;;;22.60;15.23;;;;;;;;;;5063009;28;20687;-76
2022/07/31 09:42:07;;;;;;;21.48;16.27;;;;;;;;;;5063607;28;20498;-76
2022/07/31 09:44:37;;;;;;;23.17;15.45;;;;;;;;;;5062781;28;20123;-76
2022/07/31 09:47:03;;;;;;;21.42;16.55;;;;;;;;;;5065342;28;20052;-75
2022/07/31 09:49:31;;;;;;;18.80;15.02;;;;;;;;;;5066622;28;20279;-75
2022/07/31 09:51:59;;;;;;;21.17;15.20;;;;;;;;;;5070241;28;20045;-75
2022/07/31 09:54:28;;;;;;;21.20;16.35;;;;;;;;;;5052544;28;20544;-76
2022/07/31 09:56:55;;;;;;;18.30;15.82;;;;;;;;;;5077749;28;20051;-75
2022/07/31 09:59:38;;;;;;;16.58;13.98;;;;;;;;;;5066593;28;20036;-77
2022/07/31 10:02:05;;;;;;;19.23;14.77;;;;;;;;;;5063176;28;20094;-76
2022/07/31 10:04:31;;;;;;;17.85;15.00;;;;;;;;;;5065570;28;20123;-80
2022/07/31 10:06:57;;;;;;;16.15;14.43;;;;;;;;;;5067944;28;21567;-80
2022/07/31 10:09:24;;;;;;;17.88;14.73;;;;;;;;;;5065468;28;20044;-77
2022/07/31 10:11:53;;;;;;;15.35;12.75;;;;;;;;;;5065681;28;20033;-76
2022/07/31 10:14:21;;;;;;;14.82;11.88;;;;;;;;;;5064996;28;20052;-76
2022/07/31 10:16:48;;;;;;;14.00;11.23;;;;;;;;;;5066791;28;20045;-82
2022/07/31 10:19:14;;;;;;;15.80;12.20;;;;;;;;;;5071732;28;20067;-77
2022/07/31 10:21:41;;;;;;;15.63;12.25;;;;;;;;;;5072823;28;20094;-75
2022/07/31 10:24:09;;;;;;;14.45;11.18;;;;;;;;;;5072532;28;20040;-75
2022/07/31 10:26:35;;;;;;;15.52;11.85;;;;;;;;;;5072307;28;20045;-76
2022/07/31 10:29:02;;;;;;;14.13;11.27;;;;;;;;;;5071830;28;20094;-76
2022/07/31 10:31:29;;;;;;;12.88;10.82;;;;;;;;;;5071270;28;20049;-75
2022/07/31 10:33:56;;;;;;;15.73;12.00;;;;;;;;;;5072958;28;20044;-75
2022/07/31 10:36:24;;;;;;;15.23;12.63;;;;;;;;;;5038096;28;20458;-76
2022/07/31 10:39:06;;;;;;;15.80;11.35;;;;;;;;;;5073282;28;20041;-76
2022/07/31 10:41:49;;;;;;;14.25;10.18;;;;;;;;;;5076223;28;20491;-75
2022/07/31 10:44:35;;;;;;;11.95;8.80;;;;;;;;;;5037491;28;20468;-76
2022/07/31 10:47:01;;;;;;;;;;;;;;;;;;5060736;28;20041;-75
2022/07/31 10:49:40;;;;;;;10.63;8.57;;;;;;;;;;5073755;28;19921;-75
2022/07/31 10:52:06;;;;;;;12.95;8.93;;;;;;;;;;5070565;28;20105;-75
2022/07/31 10:54:42;;;;;;;11.32;9.45;;;;;;;;;;5076640;28;20041;-74
2022/07/31 10:57:09;;;;;;;12.20;9.35;;;;;;;;;;5080527;28;20052;-74
2022/07/31 10:59:35;;;;;;;10.52;9.38;;;;;;;;;;5081361;28;20040;-75
2022/07/31 11:02:03;;;;;;;12.85;9.18;;;;;;;;;;5077797;28;20123;-74
2022/07/31 11:04:31;;;;;;;11.20;8.52;;;;;;;;;;5081050;28;20036;-73
2022/07/31 11:06:57;;;;;;;15.30;8.70;;;;;;;;;;5080919;28;20040;-74
2022/07/31 11:09:24;;;;;;;10.88;8.02;;;;;;;;;;5096935;28;20044;-75
2022/07/31 11:11:50;;;;;;;13.20;9.07;;;;;;;;;;5079437;28;20110;-76
2022/07/31 11:14:16;;;;;;;10.48;9.07;;;;;;;;;;5074608;28;20090;-77
2022/07/31 11:16:52;;;;;;;13.18;10.25;;;;;;;;;;5060895;28;20491;-75
2022/07/31 11:19:18;;;;;;;;;;;;;;;;;;5079071;28;20464;-76
2022/07/31 11:21:47;;;;;;;14.90;11.18;;;;;;;;;;5081368;28;19928;-76
2022/07/31 11:24:14;;;;;;;14.40;11.32;;;;;;;;;;5062919;28;20037;-76
2022/07/31 11:26:57;;;;;;;12.80;11.07;;;;;;;;;;5067631;28;20143;-75
2022/07/31 11:29:34;;;;;;;13.95;12.18;;;;;;;;;;5081034;28;20415;-74
2022/07/31 11:32:12;;;;;;;16.58;12.32;;;;;;;;;;5062142;28;20044;-77
2022/07/31 11:34:47;;;;;;;18.25;12.88;;;;;;;;;;5078530;28;20480;-76
2022/07/31 11:37:19;;;;;;;19.77;12.53;;;;;;;;;;5078952;28;20047;-75
2022/07/31 11:39:45;;;;;;;19.08;13.20;;;;;;;;;;5084545;28;20056;-75
2022/07/31 11:42:11;;;;;;;18.55;13.27;;;;;;;;;;5065050;28;20080;-74
2022/07/31 11:44:38;;;;;;;17.35;12.32;;;;;;;;;;5063786;28;20064;-74
2022/07/31 11:47:04;;;;;;;16.35;12.77;;;;;;;;;;5066044;28;20064;-75
2022/07/31 11:49:34;;;;;;;13.07;11.35;;;;;;;;;;5082713;28;20044;-74
2022/07/31 11:52:00;;;;;;;12.80;10.75;;;;;;;;;;5082789;28;20036;-76
2022/07/31 11:54:26;;;;;;;11.25;9.50;;;;;;;;;;5083410;28;20040;-75
2022/07/31 11:56:55;;;;;;;8.40;6.65;;;;;;;;;;5079261;28;20048;-76
2022/07/31 11:59:30;;;;;;;7.53;6.63;;;;;;;;;;5075195;28;20171;-75
2022/07/31 12:02:03;;;;;;;6.32;5.47;;;;;;;;;;5071977;28;20052;-75
2022/07/31 12:04:29;;;;;;;5.38;4.20;;;;;;;;;;5067779;28;20055;-74
2022/07/31 12:06:56;;;;;;;3.88;2.95;;;;;;;;;;5077493;28;20078;-76
2022/07/31 12:09:25;;;;;;;3.97;2.65;;;;;;;;;;5077740;28;20178;-75
2022/07/31 12:11:54;;;;;;;3.20;2.30;;;;;;;;;;5077746;28;20040;-78
2022/07/31 12:14:30;;;;;;;2.83;2.25;;;;;;;;;;5060369;28;20045;-75
2022/07/31 12:17:00;;;;;;;2.67;2.47;;;;;;;;;;5078470;28;20087;-75
2022/07/31 12:19:29;;;;;;;3.05;2.72;;;;;;;;;;5077391;28;20047;-74
2022/07/31 12:21:55;;;;;;;3.15;2.65;;;;;;;;;;5075964;28;20040;-74
2022/07/31 12:24:22;;;;;;;2.75;2.42;;;;;;;;;;5077691;28;20036;-73
2022/07/31 12:26:53;;;;;;;4.65;2.40;;;;;;;;;;5039905;28;20054;-74
2022/07/31 12:29:19;;;;;;;3.20;2.70;;;;;;;;;;5032960;28;20045;-74
2022/07/31 12:31:50;;;;;;;2.92;2.55;;;;;;;;;;5033930;28;20064;-75
2022/07/31 12:34:26;;;;;;;3.58;2.70;;;;;;;;;;5024806;28;20403;-76
2022/07/31 12:37:03;;;;;;;3.45;2.72;;;;;;;;;;5033730;28;20041;-75
2022/07/31 12:39:29;;;;;;;2.88;2.53;;;;;;;;;;5004655;28;20055;-75
2022/07/31 12:41:55;;;;;;;3.08;2.63;;;;;;;;;;5017837;28;20488;-76
2022/07/31 12:44:27;;;;;;;3.28;2.67;;;;;;;;;;5029176;28;21432;-76
2022/07/31 12:46:54;;;;;;;3.85;2.63;;;;;;;;;;5034997;28;20164;-75
2022/07/31 12:49:22;;;;;;;3.00;2.60;;;;;;;;;;5016691;28;20469;-74
2022/07/31 12:51:48;;;;;;;4.18;3.00;;;;;;;;;;5015949;28;20041;-75
2022/07/31 12:54:17;;;;;;;4.30;3.40;;;;;;;;;;5033517;28;20063;-74
2022/07/31 12:56:44;;;;;;;4.68;3.88;;;;;;;;;;5017880;28;20053;-75
2022/07/31 12:59:19;;;;;;;4.70;4.00;;;;;;;;;;5034237;28;20133;-77
2022/07/31 13:01:45;;;;;;;5.53;4.15;;;;;;;;;;5034859;28;20088;-74
2022/07/31 13:04:11;;;;;;;4.72;3.80;;;;;;;;;;5016417;28;20083;-76
2022/07/31 13:06:37;;;;;;;7.47;4.40;;;;;;;;;;5030213;28;20038;-75
2022/07/31 13:09:04;;;;;;;6.03;4.35;;;;;;;;;;5020490;28;20045;-75
2022/07/31 13:11:32;;;;;;;5.35;4.22;;;;;;;;;;5035568;28;20412;-75
2022/07/31 13:14:04;;;;;;;5.18;4.55;;;;;;;;;;5035892;28;20496;-75
2022/07/31 13:16:30;;;;;;;4.63;3.85;;;;;;;;;;5034805;28;20041;-76
2022/07/31 13:19:01;;;;;;;6.63;4.63;;;;;;;;;;5034571;28;20041;-75
2022/07/31 13:21:30;;;;;;;5.25;4.75;;;;;;;;;;5034265;28;20056;-76
2022/07/31 13:23:57;;;;;;;8.90;5.70;;;;;;;;;;4998614;28;20050;-76
2022/07/31 13:26:23;;;;;;;5.93;5.32;;;;;;;;;;5031640;28;20041;-76
2022/07/31 13:28:49;;;;;;;8.05;6.57;;;;;;;;;;5034086;28;20144;-76
2022/07/31 13:31:17;;;;;;;8.98;7.18;;;;;;;;;;5034752;28;20103;-76
2022/07/31 13:33:47;;;;;;;10.32;7.65;;;;;;;;;;5033477;28;20128;-75
2022/07/31 13:36:22;;;;;;;9.88;7.57;;;;;;;;;;5018242;28;20488;-75
2022/07/31 13:38:51;;;;;;;8.27;7.20;;;;;;;;;;5034227;28;20049;-75
2022/07/31 13:41:22;;;;;;;7.93;5.90;;;;;;;;;;5032912;28;20121;-75
2022/07/31 13:43:55;;;;;;;9.00;6.82;;;;;;;;;;5033548;28;20049;-75
2022/07/31 13:46:21;;;;;;;9.90;6.90;;;;;;;;;;5032019;28;20080;-75
2022/07/31 13:48:47;;;;;;;10.20;7.43;;;;;;;;;;5000234;28;20053;-74
2022/07/31 13:51:13;;;;;;;10.20;7.80;;;;;;;;;;5033468;28;20109;-74
2022/07/31 13:53:40;;;;;;;11.55;8.18;;;;;;;;;;5033290;28;20394;-76
2022/07/31 13:56:06;;;;;;;13.00;8.02;;;;;;;;;;5033511;28;20488;-74
2022/07/31 13:58:32;;;;;;;11.68;7.90;;;;;;;;;;5035643;28;20440;-74
2022/07/31 14:01:02;;;;;;;9.65;6.05;;;;;;;;;;5019244;28;20116;-75
2022/07/31 14:03:28;;;;;;;6.88;4.70;;;;;;;;;;5018756;28;20042;-76
2022/07/31 14:05:54;;;;;;;5.80;4.38;;;;;;;;;;5035855;28;20094;-75
2022/07/31 14:08:20;;;;;;;6.28;4.05;;;;;;;;;;5036686;28;20045;-78
2022/07/31 14:10:47;;;;;;;4.95;4.03;;;;;;;;;;5005031;28;20042;-75
2022/07/31 14:13:24;;;;;;;5.10;3.72;;;;;;;;;;5031142;28;20087;-75
2022/07/31 14:15:50;;;;;;;6.43;4.47;;;;;;;;;;5036728;28;20037;-76
2022/07/31 14:18:19;;;;;;;7.72;5.28;;;;;;;;;;5035635;28;20048;-75
2022/07/31 14:20:45;;;;;;;6.95;5.57;;;;;;;;;;5038574;28;20493;-74
2022/07/31 14:23:11;;;;;;;7.75;5.88;;;;;;;;;;5041885;28;20068;-74
2022/07/31 14:25:40;;;;;;;9.30;5.90;;;;;;;;;;5040005;28;20050;-74
2022/07/31 14:28:07;;;;;;;8.00;6.05;;;;;;;;;;5039787;28;20120;-75
2022/07/31 14:30:33;;;;;;;8.18;5.80;;;;;;;;;;5040161;28;20072;-75
2022/07/31 14:33:00;;;;;;;11.48;6.85;;;;;;;;;;5039838;28;20042;-75
2022/07/31 14:35:26;;;;;;;9.55;6.20;;;;;;;;;;5040266;28;20052;-74
2022/07/31 14:37:52;;;;;;;9.98;7.00;;;;;;;;;;5040060;28;20083;-74